PST,Max TemperatureF,Mean TemperatureF,Min TemperatureF,Max Dew PointF,MeanDew PointF,Min DewpointF,Max Humidity, Mean Humidity, Min Humidity, Max Sea Level PressureIn, Mean Sea Level PressureIn, Min Sea Level PressureIn, Max VisibilityMiles, Mean VisibilityMiles, Min VisibilityMiles, Max Wind SpeedMPH, Mean Wind SpeedMPH, Max Gust SpeedMPH,PrecipitationIn, CloudCover, Events, WindDirDegrees
2012-11-1,62,55,48,55,51,46,100,90,72,30.06,29.92,29.76,10,9,3,23,13,30,0.27,7,,151
2012-11-2,55,50,46,52,49,45,100,92,77,30.05,30.02,29.99,10,7,0,6,1,,0.04,7,,113
2012-11-3,64,58,51,57,54,50,100,90,73,30.20,30.12,30.01,10,9,4,13,4,,0.03,8,,151
2012-11-4,73,63,53,61,57,54,100,87,61,30.36,30.29,30.20,10,10,1,10,2,,0.01,4,,198
2012-11-5,62,56,51,59,56,50,100,93,82,30.36,30.28,30.14,10,6,0,8,3,,0.00,8,,16
2012-11-6,68,60,53,57,53,46,100,85,64,30.15,30.09,30.05,10,9,3,14,4,22,0.00,7,,254
2012-11-7,57,48,39,46,43,39,100,83,58,30.21,30.12,29.94,10,10,10,8,3,,0.00,5,,254
2012-11-8,46,44,42,43,42,39,100,92,81,29.93,29.82,29.77,10,8,0,10,1,,0.01,8,,315
2012-11-9,50,44,37,43,39,36,100,90,66,29.95,29.89,29.86,10,8,0,20,2,24,0.00,7,,271
2012-11-10,46,42,37,39,38,36,100,87,71,30.24,30.11,29.95,10,10,7,8,2,,0.00,7,,133
2012-11-11,48,44,41,43,40,37,93,85,76,30.28,30.24,30.21,10,10,10,15,9,18,0.00,8,,160
2012-11-12,53,48,44,50,46,43,100,93,87,30.27,30.22,30.17,10,9,0,16,9,21,0.20,8,,159
2012-11-13,53,48,42,52,47,43,100,96,88,30.27,30.21,30.17,10,5,0,8,1,,0.02,8,,142
2012-11-14,57,48,39,50,45,37,100,91,72,30.31,30.25,30.19,10,8,0,10,2,,0.00,5,,334
2012-11-15,48,44,39,45,41,39,100,86,76,30.19,30.05,29.95,10,10,9,12,5,,0.00,7,,43
2012-11-16,55,47,39,48,44,39,100,92,72,29.96,29.88,29.74,10,8,2,6,1,,0.00,7,,77
2012-11-17,51,46,42,52,45,39,100,92,81,29.84,29.70,29.59,10,9,2,16,7,21,0.63,7,,155
2012-11-18,51,46,42,46,44,39,100,88,71,29.88,29.79,29.69,10,10,10,16,12,22,0.49,8,,158
2012-11-19,55,52,50,54,50,46,100,90,82,29.77,29.67,29.59,10,9,5,23,16,30,1.87,8,,163
2012-11-20,57,52,46,50,47,45,94,88,67,29.76,29.70,29.63,10,10,5,21,10,30,0.91,7,,158
2012-11-21,51,42,33,45,40,34,100,88,71,30.33,30.05,29.67,10,9,0,17,10,22,0.26,4,,182
2012-11-22,48,42,35,43,38,34,100,93,76,30.36,30.32,30.27,10,5,0,7,1,,0.00,5,,117
2012-11-23,51,44,37,48,43,36,100,91,76,30.29,30.22,30.14,10,8,0,16,4,18,0.22,7,,154
2012-11-24,51,46,42,50,46,41,100,92,87,30.26,30.23,30.18,10,10,4,13,6,,0.20,8,,304
2012-11-25,42,38,33,39,37,32,100,90,76,30.28,30.21,30.09,10,8,0,13,5,17,0.00,7,,339
2012-11-26,48,38,28,37,33,27,100,89,62,30.10,30.06,30.02,10,6,0,6,2,,0.00,2,,218
2012-11-27,42,36,30,39,35,28,100,94,81,30.08,30.00,29.88,10,4,0,4,0,,0.00,4,,320
2012-11-28,44,38,33,43,37,32,100,92,81,29.88,29.72,29.63,10,7,0,9,2,,0.02,6,,163
2012-11-29,55,45,35,48,44,36,100,92,77,29.68,29.60,29.49,10,9,0,21,6,28,0.29,7,,164
2012-11-30,55,52,48,52,49,45,100,91,82,29.57,29.51,29.45,10,10,7,21,11,31,0.57,8,,155